sensor_id;sensor_type;location;lat;lon;timestamp;pressure;altitude;pressure_sealevel;temperature;humidity
52489;BME280;38399;52.236;104.280;2022-10-16T00:00:28;98142.25;;;-2.72;69.14
52489;BME280;38399;52.236;104.280;2022-10-16T00:02:55;98141.50;;;-2.74;69.24
52489;BME280;38399;52.236;104.280;2022-10-16T00:05:21;98142.25;;;-2.72;69.25
52489;BME280;38399;52.236;104.280;2022-10-16T00:07:48;98139.25;;;-2.67;69.54
52489;BME280;38399;52.236;104.280;2022-10-16T00:10:14;98152.13;;;-2.61;69.43
52489;BME280;38399;52.236;104.280;2022-10-16T00:12:41;98148.81;;;-2.52;69.75
52489;BME280;38399;52.236;104.280;2022-10-16T00:15:07;98150.72;;;-2.54;69.18
52489;BME280;38399;52.236;104.280;2022-10-16T00:17:33;98150.38;;;-2.36;69.07
52489;BME280;38399;52.236;104.280;2022-10-16T00:20:00;98148.19;;;-2.18;68.12
52489;BME280;38399;52.236;104.280;2022-10-16T00:22:46;98147.81;;;-2.00;67.73
52489;BME280;38399;52.236;104.280;2022-10-16T00:25:12;98145.44;;;-1.92;67.86
52489;BME280;38399;52.236;104.280;2022-10-16T00:27:38;98147.97;;;-1.91;67.73
52489;BME280;38399;52.236;104.280;2022-10-16T00:30:05;98155.84;;;-1.89;67.78
52489;BME280;38399;52.236;104.280;2022-10-16T00:32:31;98156.00;;;-1.79;68.12
52489;BME280;38399;52.236;104.280;2022-10-16T00:34:57;98152.13;;;-1.51;67.68
52489;BME280;38399;52.236;104.280;2022-10-16T00:37:25;98154.19;;;-0.96;66.55
52489;BME280;38399;52.236;104.280;2022-10-16T00:39:51;98153.66;;;0.01;64.60
52489;BME280;38399;52.236;104.280;2022-10-16T00:42:18;98154.06;;;1.25;62.49
52489;BME280;38399;52.236;104.280;2022-10-16T00:44:53;98145.41;;;2.63;60.65
52489;BME280;38399;52.236;104.280;2022-10-16T00:49:53;98148.16;;;7.18;51.13
52489;BME280;38399;52.236;104.280;2022-10-16T00:52:22;98142.78;;;9.00;46.72
52489;BME280;38399;52.236;104.280;2022-10-16T00:54:49;98132.72;;;10.43;44.45
52489;BME280;38399;52.236;104.280;2022-10-16T00:57:16;98142.94;;;11.57;42.67
52489;BME280;38399;52.236;104.280;2022-10-16T00:59:43;98137.59;;;12.60;41.51
52489;BME280;38399;52.236;104.280;2022-10-16T01:02:13;98139.31;;;13.82;39.91
52489;BME280;38399;52.236;104.280;2022-10-16T01:04:46;98137.63;;;14.92;37.66
52489;BME280;38399;52.236;104.280;2022-10-16T01:18:30;98132.75;;;20.09;30.78
52489;BME280;38399;52.236;104.280;2022-10-16T01:21:10;98135.16;;;20.89;31.47
52489;BME280;38399;52.236;104.280;2022-10-16T01:26:24;98137.53;;;22.74;28.95
52489;BME280;38399;52.236;104.280;2022-10-16T01:31:32;98134.03;;;24.07;26.59
52489;BME280;38399;52.236;104.280;2022-10-16T01:34:15;98131.47;;;24.92;25.41
52489;BME280;38399;52.236;104.280;2022-10-16T01:36:52;98131.16;;;25.39;24.39
52489;BME280;38399;52.236;104.280;2022-10-16T01:39:22;98135.63;;;26.28;24.48
52489;BME280;38399;52.236;104.280;2022-10-16T01:42:24;98128.72;;;27.12;22.28
52489;BME280;38399;52.236;104.280;2022-10-16T01:44:54;98127.72;;;27.74;23.22
52489;BME280;38399;52.236;104.280;2022-10-16T01:47:23;98131.56;;;28.11;22.32
52489;BME280;38399;52.236;104.280;2022-10-16T01:49:52;98119.66;;;28.76;21.67
52489;BME280;38399;52.236;104.280;2022-10-16T01:52:22;98132.38;;;29.18;20.64
52489;BME280;38399;52.236;104.280;2022-10-16T01:54:52;98127.28;;;29.34;20.94
52489;BME280;38399;52.236;104.280;2022-10-16T01:57:21;98133.63;;;29.49;20.50
52489;BME280;38399;52.236;104.280;2022-10-16T01:59:54;98128.81;;;29.63;19.46
52489;BME280;38399;52.236;104.280;2022-10-16T02:02:22;98124.13;;;30.04;20.07
52489;BME280;38399;52.236;104.280;2022-10-16T02:04:57;98127.88;;;30.40;19.36
52489;BME280;38399;52.236;104.280;2022-10-16T02:07:24;98127.25;;;30.03;19.39
52489;BME280;38399;52.236;104.280;2022-10-16T02:09:50;98123.72;;;29.65;19.73
52489;BME280;38399;52.236;104.280;2022-10-16T02:12:29;98129.47;;;29.92;18.85
52489;BME280;38399;52.236;104.280;2022-10-16T02:14:57;98124.41;;;30.34;18.72
52489;BME280;38399;52.236;104.280;2022-10-16T02:17:23;98111.09;;;31.50;19.75
52489;BME280;38399;52.236;104.280;2022-10-16T02:19:52;98122.63;;;30.96;18.23
52489;BME280;38399;52.236;104.280;2022-10-16T02:22:41;98116.19;;;31.04;18.94
52489;BME280;38399;52.236;104.280;2022-10-16T02:25:22;98106.69;;;31.32;17.15
52489;BME280;38399;52.236;104.280;2022-10-16T02:30:36;98104.31;;;31.60;16.15
52489;BME280;38399;52.236;104.280;2022-10-16T02:33:07;98114.03;;;31.01;16.11
52489;BME280;38399;52.236;104.280;2022-10-16T02:35:36;98111.78;;;30.37;17.70
52489;BME280;38399;52.236;104.280;2022-10-16T02:38:04;98109.84;;;30.55;17.35
52489;BME280;38399;52.236;104.280;2022-10-16T02:40:32;98106.34;;;31.42;16.58
52489;BME280;38399;52.236;104.280;2022-10-16T02:42:58;98097.69;;;31.91;16.02
52489;BME280;38399;52.236;104.280;2022-10-16T02:45:26;98105.50;;;32.24;15.60
52489;BME280;38399;52.236;104.280;2022-10-16T02:47:52;98108.25;;;32.63;15.38
52489;BME280;38399;52.236;104.280;2022-10-16T02:50:18;98096.53;;;34.01;16.67
52489;BME280;38399;52.236;104.280;2022-10-16T02:52:45;98089.34;;;33.45;15.12
52489;BME280;38399;52.236;104.280;2022-10-16T02:55:11;98099.63;;;34.20;16.18
52489;BME280;38399;52.236;104.280;2022-10-16T02:57:38;98090.00;;;33.63;14.98
52489;BME280;38399;52.236;104.280;2022-10-16T03:00:09;98092.50;;;33.77;14.23
52489;BME280;38399;52.236;104.280;2022-10-16T03:02:37;98085.47;;;33.83;14.65
52489;BME280;38399;52.236;104.280;2022-10-16T03:05:03;98084.03;;;34.72;15.15
52489;BME280;38399;52.236;104.280;2022-10-16T03:07:29;98086.84;;;34.23;14.63
52489;BME280;38399;52.236;104.280;2022-10-16T03:09:55;98083.88;;;35.06;15.00
52489;BME280;38399;52.236;104.280;2022-10-16T03:12:22;98078.31;;;34.44;14.35
52489;BME280;38399;52.236;104.280;2022-10-16T03:14:48;98078.53;;;34.26;13.90
52489;BME280;38399;52.236;104.280;2022-10-16T03:17:15;98078.31;;;34.56;13.55
52489;BME280;38399;52.236;104.280;2022-10-16T03:19:42;98067.59;;;34.37;13.80
52489;BME280;38399;52.236;104.280;2022-10-16T03:22:08;98065.16;;;33.98;13.89
52489;BME280;38399;52.236;104.280;2022-10-16T03:24:34;98067.69;;;34.78;14.78
52489;BME280;38399;52.236;104.280;2022-10-16T03:27:00;98059.38;;;33.95;13.68
52489;BME280;38399;52.236;104.280;2022-10-16T03:29:27;98057.72;;;33.81;13.83
52489;BME280;38399;52.236;104.280;2022-10-16T03:31:56;98055.66;;;34.03;13.50
52489;BME280;38399;52.236;104.280;2022-10-16T03:34:22;98051.41;;;34.71;12.99
52489;BME280;38399;52.236;104.280;2022-10-16T03:36:48;98047.97;;;34.90;13.25
52489;BME280;38399;52.236;104.280;2022-10-16T03:39:14;98049.53;;;36.53;13.99
52489;BME280;38399;52.236;104.280;2022-10-16T03:41:40;98048.44;;;36.26;12.71
52489;BME280;38399;52.236;104.280;2022-10-16T03:44:07;98042.06;;;35.65;12.57
52489;BME280;38399;52.236;104.280;2022-10-16T03:46:33;98042.69;;;35.01;12.77
52489;BME280;38399;52.236;104.280;2022-10-16T03:48:59;98035.78;;;34.86;12.66
52489;BME280;38399;52.236;104.280;2022-10-16T03:51:26;98038.69;;;35.31;12.05
52489;BME280;38399;52.236;104.280;2022-10-16T03:53:52;98033.59;;;36.45;13.04
52489;BME280;38399;52.236;104.280;2022-10-16T03:56:19;98029.50;;;35.78;12.44
52489;BME280;38399;52.236;104.280;2022-10-16T03:58:46;98026.91;;;35.41;12.26
52489;BME280;38399;52.236;104.280;2022-10-16T04:01:12;98020.66;;;35.48;11.78
52489;BME280;38399;52.236;104.280;2022-10-16T04:03:38;98006.03;;;35.74;12.04
52489;BME280;38399;52.236;104.280;2022-10-16T04:06:05;98016.59;;;36.41;11.74
52489;BME280;38399;52.236;104.280;2022-10-16T04:08:31;98016.31;;;36.66;11.20
52489;BME280;38399;52.236;104.280;2022-10-16T04:11:00;98013.94;;;36.68;11.03
52489;BME280;38399;52.236;104.280;2022-10-16T04:13:26;97996.25;;;36.36;11.31
52489;BME280;38399;52.236;104.280;2022-10-16T04:15:53;98004.19;;;35.50;11.38
52489;BME280;38399;52.236;104.280;2022-10-16T04:18:19;97997.78;;;35.09;11.54
52489;BME280;38399;52.236;104.280;2022-10-16T04:20:45;97986.59;;;34.84;11.63
52489;BME280;38399;52.236;104.280;2022-10-16T04:23:12;97997.09;;;35.12;11.36
52489;BME280;38399;52.236;104.280;2022-10-16T04:25:38;97989.50;;;35.00;11.77
52489;BME280;38399;52.236;104.280;2022-10-16T04:28:04;97984.47;;;35.21;11.75
52489;BME280;38399;52.236;104.280;2022-10-16T04:30:31;97976.13;;;34.97;11.71
52489;BME280;38399;52.236;104.280;2022-10-16T04:32:59;97972.34;;;35.05;11.42
52489;BME280;38399;52.236;104.280;2022-10-16T04:35:26;97967.22;;;34.95;11.84
52489;BME280;38399;52.236;104.280;2022-10-16T04:37:52;97967.72;;;34.43;11.74
52489;BME280;38399;52.236;104.280;2022-10-16T04:40:19;97965.13;;;34.79;11.63
52489;BME280;38399;52.236;104.280;2022-10-16T04:42:45;97956.41;;;34.97;11.37
52489;BME280;38399;52.236;104.280;2022-10-16T04:45:11;97957.47;;;34.51;11.46
52489;BME280;38399;52.236;104.280;2022-10-16T04:47:37;97956.53;;;33.35;12.03
52489;BME280;38399;52.236;104.280;2022-10-16T04:50:04;97946.63;;;32.11;12.56
52489;BME280;38399;52.236;104.280;2022-10-16T04:52:30;97934.03;;;30.74;13.45
52489;BME280;38399;52.236;104.280;2022-10-16T04:54:58;97940.38;;;28.93;14.31
52489;BME280;38399;52.236;104.280;2022-10-16T04:57:29;97927.75;;;25.57;16.16
52489;BME280;38399;52.236;104.280;2022-10-16T04:59:56;97920.97;;;22.16;18.74
52489;BME280;38399;52.236;104.280;2022-10-16T05:02:22;97922.66;;;19.58;20.80
52489;BME280;38399;52.236;104.280;2022-10-16T05:04:48;97912.72;;;17.41;22.96
52489;BME280;38399;52.236;104.280;2022-10-16T05:07:15;97918.91;;;15.99;24.37
52489;BME280;38399;52.236;104.280;2022-10-16T05:09:41;97919.03;;;14.81;25.57
52489;BME280;38399;52.236;104.280;2022-10-16T05:12:07;97911.16;;;13.83;26.90
52489;BME280;38399;52.236;104.280;2022-10-16T05:14:34;97902.66;;;13.00;27.94
52489;BME280;38399;52.236;104.280;2022-10-16T05:17:00;97908.63;;;12.43;28.51
52489;BME280;38399;52.236;104.280;2022-10-16T05:19:27;97904.19;;;12.02;29.21
52489;BME280;38399;52.236;104.280;2022-10-16T05:21:53;97899.53;;;11.69;29.75
52489;BME280;38399;52.236;104.280;2022-10-16T05:24:19;97892.16;;;11.49;30.15
52489;BME280;38399;52.236;104.280;2022-10-16T05:26:45;97886.69;;;11.43;30.14
52489;BME280;38399;52.236;104.280;2022-10-16T05:29:11;97882.59;;;11.12;30.52
52489;BME280;38399;52.236;104.280;2022-10-16T05:31:38;97886.88;;;10.93;30.94
52489;BME280;38399;52.236;104.280;2022-10-16T05:34:04;97884.50;;;10.76;31.50
52489;BME280;38399;52.236;104.280;2022-10-16T05:36:30;97877.94;;;10.57;31.66
52489;BME280;38399;52.236;104.280;2022-10-16T05:38:57;97890.47;;;10.36;32.26
52489;BME280;38399;52.236;104.280;2022-10-16T05:41:23;97882.50;;;10.28;31.99
52489;BME280;38399;52.236;104.280;2022-10-16T05:43:52;97874.66;;;10.68;31.96
52489;BME280;38399;52.236;104.280;2022-10-16T05:46:19;97872.22;;;10.80;31.84
52489;BME280;38399;52.236;104.280;2022-10-16T05:48:45;97866.03;;;10.93;31.62
52489;BME280;38399;52.236;104.280;2022-10-16T05:51:13;97864.75;;;10.89;31.75
52489;BME280;38399;52.236;104.280;2022-10-16T05:53:41;97860.91;;;10.70;31.80
52489;BME280;38399;52.236;104.280;2022-10-16T05:56:10;97862.38;;;10.44;32.84
52489;BME280;38399;52.236;104.280;2022-10-16T05:58:37;97858.47;;;10.25;32.95
52489;BME280;38399;52.236;104.280;2022-10-16T06:01:11;97851.56;;;9.94;33.37
52489;BME280;38399;52.236;104.280;2022-10-16T06:03:38;97844.66;;;9.70;33.67
52489;BME280;38399;52.236;104.280;2022-10-16T06:06:11;97839.31;;;9.76;33.14
52489;BME280;38399;52.236;104.280;2022-10-16T06:08:39;97836.75;;;9.68;33.66
52489;BME280;38399;52.236;104.280;2022-10-16T06:11:08;97828.69;;;9.53;34.05
52489;BME280;38399;52.236;104.280;2022-10-16T06:13:35;97824.09;;;9.54;34.00
52489;BME280;38399;52.236;104.280;2022-10-16T06:16:02;97825.56;;;9.78;34.15
52489;BME280;38399;52.236;104.280;2022-10-16T06:18:29;97814.66;;;9.71;33.81
52489;BME280;38399;52.236;104.280;2022-10-16T06:20:56;97811.22;;;9.56;34.03
52489;BME280;38399;52.236;104.280;2022-10-16T06:23:24;97812.75;;;9.43;34.20
52489;BME280;38399;52.236;104.280;2022-10-16T06:25:50;97810.44;;;9.40;34.38
52489;BME280;38399;52.236;104.280;2022-10-16T06:28:17;97799.16;;;9.58;34.52
52489;BME280;38399;52.236;104.280;2022-10-16T06:30:43;97798.41;;;9.71;34.35
52489;BME280;38399;52.236;104.280;2022-10-16T06:33:12;97788.88;;;9.75;34.29
52489;BME280;38399;52.236;104.280;2022-10-16T06:35:38;97787.56;;;9.64;34.30
52489;BME280;38399;52.236;104.280;2022-10-16T06:38:05;97786.69;;;9.64;34.40
52489;BME280;38399;52.236;104.280;2022-10-16T06:40:31;97790.50;;;9.70;34.22
52489;BME280;38399;52.236;104.280;2022-10-16T06:42:57;97780.97;;;9.74;33.97
52489;BME280;38399;52.236;104.280;2022-10-16T06:45:24;97779.03;;;9.68;34.17
52489;BME280;38399;52.236;104.280;2022-10-16T06:47:50;97775.44;;;9.60;34.16
52489;BME280;38399;52.236;104.280;2022-10-16T06:50:16;97765.31;;;9.47;34.58
52489;BME280;38399;52.236;104.280;2022-10-16T06:52:42;97765.13;;;9.49;34.82
52489;BME280;38399;52.236;104.280;2022-10-16T06:55:08;97761.13;;;9.45;34.68
52489;BME280;38399;52.236;104.280;2022-10-16T06:57:35;97763.94;;;9.37;34.66
52489;BME280;38399;52.236;104.280;2022-10-16T07:00:01;97757.63;;;9.29;34.56
52489;BME280;38399;52.236;104.280;2022-10-16T07:02:29;97756.81;;;9.29;34.57
52489;BME280;38399;52.236;104.280;2022-10-16T07:04:55;97761.31;;;9.22;34.81
52489;BME280;38399;52.236;104.280;2022-10-16T07:07:22;97745.84;;;9.15;34.67
52489;BME280;38399;52.236;104.280;2022-10-16T07:09:50;97747.91;;;9.13;34.61
52489;BME280;38399;52.236;104.280;2022-10-16T07:12:17;97745.66;;;9.17;34.51
52489;BME280;38399;52.236;104.280;2022-10-16T07:14:43;97742.13;;;9.16;34.20
52489;BME280;38399;52.236;104.280;2022-10-16T07:17:10;97746.28;;;9.19;34.07
52489;BME280;38399;52.236;104.280;2022-10-16T07:19:36;97737.72;;;9.15;33.95
52489;BME280;38399;52.236;104.280;2022-10-16T07:22:03;97728.06;;;9.06;34.35
52489;BME280;38399;52.236;104.280;2022-10-16T07:24:30;97726.16;;;9.00;34.46
52489;BME280;38399;52.236;104.280;2022-10-16T07:26:56;97721.34;;;9.02;34.43
52489;BME280;38399;52.236;104.280;2022-10-16T07:29:22;97717.38;;;8.98;34.19
52489;BME280;38399;52.236;104.280;2022-10-16T07:31:49;97720.66;;;8.93;34.06
52489;BME280;38399;52.236;104.280;2022-10-16T07:34:17;97712.53;;;8.93;34.10
52489;BME280;38399;52.236;104.280;2022-10-16T07:36:46;97721.34;;;9.02;34.28
52489;BME280;38399;52.236;104.280;2022-10-16T07:39:13;97721.25;;;9.10;33.79
52489;BME280;38399;52.236;104.280;2022-10-16T07:41:39;97719.13;;;9.06;34.03
52489;BME280;38399;52.236;104.280;2022-10-16T07:44:05;97709.06;;;8.99;33.78
52489;BME280;38399;52.236;104.280;2022-10-16T07:46:32;97710.81;;;9.07;33.65
52489;BME280;38399;52.236;104.280;2022-10-16T07:48:59;97713.06;;;9.03;33.21
52489;BME280;38399;52.236;104.280;2022-10-16T07:51:26;97701.53;;;8.95;33.29
52489;BME280;38399;52.236;104.280;2022-10-16T07:53:53;97705.00;;;8.88;33.16
52489;BME280;38399;52.236;104.280;2022-10-16T07:56:20;97702.22;;;8.82;33.05
52489;BME280;38399;52.236;104.280;2022-10-16T07:58:47;97703.38;;;8.72;32.89
52489;BME280;38399;52.236;104.280;2022-10-16T08:01:16;97701.34;;;8.60;32.74
52489;BME280;38399;52.236;104.280;2022-10-16T08:03:47;97697.53;;;8.54;32.99
52489;BME280;38399;52.236;104.280;2022-10-16T08:06:14;97695.22;;;8.51;33.04
52489;BME280;38399;52.236;104.280;2022-10-16T08:08:40;97701.94;;;8.55;32.91
52489;BME280;38399;52.236;104.280;2022-10-16T08:11:06;97694.66;;;8.55;32.58
52489;BME280;38399;52.236;104.280;2022-10-16T08:13:33;97692.03;;;8.62;32.79
52489;BME280;38399;52.236;104.280;2022-10-16T08:15:59;97685.50;;;8.56;32.33
52489;BME280;38399;52.236;104.280;2022-10-16T08:18:26;97694.28;;;8.59;32.59
52489;BME280;38399;52.236;104.280;2022-10-16T08:20:57;97694.84;;;8.54;32.35
52489;BME280;38399;52.236;104.280;2022-10-16T08:23:25;97692.97;;;8.54;32.16
52489;BME280;38399;52.236;104.280;2022-10-16T08:25:56;97691.13;;;8.55;32.07
52489;BME280;38399;52.236;104.280;2022-10-16T08:28:22;97678.34;;;8.49;32.03
52489;BME280;38399;52.236;104.280;2022-10-16T08:30:49;97680.56;;;8.45;32.33
52489;BME280;38399;52.236;104.280;2022-10-16T08:33:15;97675.16;;;8.45;32.30
52489;BME280;38399;52.236;104.280;2022-10-16T08:35:41;97679.28;;;8.41;32.07
52489;BME280;38399;52.236;104.280;2022-10-16T08:38:08;97679.84;;;8.36;32.40
52489;BME280;38399;52.236;104.280;2022-10-16T08:40:35;97680.75;;;8.44;32.03
52489;BME280;38399;52.236;104.280;2022-10-16T08:48:20;97679.47;;;8.24;31.96
52489;BME280;38399;52.236;104.280;2022-10-16T08:50:50;97671.03;;;8.13;32.11
52489;BME280;38399;52.236;104.280;2022-10-16T08:53:23;97674.66;;;8.05;32.27
52489;BME280;38399;52.236;104.280;2022-10-16T08:55:52;97680.63;;;8.00;32.01
52489;BME280;38399;52.236;104.280;2022-10-16T08:58:23;97669.09;;;7.91;32.45
52489;BME280;38399;52.236;104.280;2022-10-16T09:00:57;97666.09;;;7.86;32.58
52489;BME280;38399;52.236;104.280;2022-10-16T09:12:17;97656.13;;;7.57;32.87
52489;BME280;38399;52.236;104.280;2022-10-16T09:22:50;97652.84;;;7.31;33.22
52489;BME280;38399;52.236;104.280;2022-10-16T09:25:20;97651.72;;;7.26;33.06
52489;BME280;38399;52.236;104.280;2022-10-16T09:27:50;97651.47;;;7.12;33.31
52489;BME280;38399;52.236;104.280;2022-10-16T09:30:20;97652.41;;;7.05;33.62
52489;BME280;38399;52.236;104.280;2022-10-16T09:32:50;97647.06;;;6.96;33.72
52489;BME280;38399;52.236;104.280;2022-10-16T09:35:27;97645.28;;;6.89;33.88
52489;BME280;38399;52.236;104.280;2022-10-16T09:37:57;97648.34;;;6.85;33.84
52489;BME280;38399;52.236;104.280;2022-10-16T09:40:26;97642.81;;;6.79;34.25
52489;BME280;38399;52.236;104.280;2022-10-16T09:45:34;97645.59;;;6.70;34.32
52489;BME280;38399;52.236;104.280;2022-10-16T09:48:12;97649.00;;;6.64;34.62
52489;BME280;38399;52.236;104.280;2022-10-16T09:50:39;97642.47;;;6.59;34.70
52489;BME280;38399;52.236;104.280;2022-10-16T09:53:12;97642.34;;;6.52;35.10
52489;BME280;38399;52.236;104.280;2022-10-16T09:55:50;97639.31;;;6.47;35.13
52489;BME280;38399;52.236;104.280;2022-10-16T09:58:17;97630.06;;;6.49;34.82
52489;BME280;38399;52.236;104.280;2022-10-16T10:00:50;97639.03;;;6.42;35.31
52489;BME280;38399;52.236;104.280;2022-10-16T10:03:37;97639.44;;;6.30;35.45
52489;BME280;38399;52.236;104.280;2022-10-16T10:06:16;97636.44;;;6.25;35.86
52489;BME280;38399;52.236;104.280;2022-10-16T10:11:43;97624.19;;;6.14;36.21
52489;BME280;38399;52.236;104.280;2022-10-16T10:14:42;97626.28;;;6.04;36.51
52489;BME280;38399;52.236;104.280;2022-10-16T10:17:14;97622.41;;;5.98;36.52
52489;BME280;38399;52.236;104.280;2022-10-16T10:30:35;97623.22;;;5.67;37.58
52489;BME280;38399;52.236;104.280;2022-10-16T10:33:28;97614.66;;;5.55;37.98
52489;BME280;38399;52.236;104.280;2022-10-16T10:38:50;97621.09;;;5.38;38.38
52489;BME280;38399;52.236;104.280;2022-10-16T10:41:39;97615.41;;;5.33;38.60
52489;BME280;38399;52.236;104.280;2022-10-16T10:52:29;97613.25;;;5.11;39.53
52489;BME280;38399;52.236;104.280;2022-10-16T10:55:10;97609.91;;;5.09;39.54
52489;BME280;38399;52.236;104.280;2022-10-16T11:00:45;97615.94;;;5.03;39.94
52489;BME280;38399;52.236;104.280;2022-10-16T11:05:52;97604.03;;;4.89;40.03
52489;BME280;38399;52.236;104.280;2022-10-16T11:08:39;97607.41;;;4.83;40.31
52489;BME280;38399;52.236;104.280;2022-10-16T11:11:13;97596.50;;;4.76;40.73
52489;BME280;38399;52.236;104.280;2022-10-16T11:16:34;97601.19;;;4.66;41.24
52489;BME280;38399;52.236;104.280;2022-10-16T11:19:14;97595.47;;;4.61;41.21
52489;BME280;38399;52.236;104.280;2022-10-16T11:22:01;97592.47;;;4.56;41.76
52489;BME280;38399;52.236;104.280;2022-10-16T11:24:53;97590.28;;;4.51;41.85
52489;BME280;38399;52.236;104.280;2022-10-16T11:27:37;97590.94;;;4.45;42.13
52489;BME280;38399;52.236;104.280;2022-10-16T11:30:13;97585.03;;;4.41;42.54
52489;BME280;38399;52.236;104.280;2022-10-16T11:35:23;97587.41;;;4.36;42.84
52489;BME280;38399;52.236;104.280;2022-10-16T11:37:53;97588.91;;;4.30;43.24
52489;BME280;38399;52.236;104.280;2022-10-16T11:40:32;97600.81;;;4.28;42.90
52489;BME280;38399;52.236;104.280;2022-10-16T11:43:14;97579.00;;;4.23;43.01
52489;BME280;38399;52.236;104.280;2022-10-16T11:45:46;97584.84;;;4.18;43.17
52489;BME280;38399;52.236;104.280;2022-10-16T11:50:53;97589.72;;;4.14;42.63
52489;BME280;38399;52.236;104.280;2022-10-16T11:56:06;97575.47;;;4.05;43.52
52489;BME280;38399;52.236;104.280;2022-10-16T11:58:56;97578.28;;;4.04;44.03
52489;BME280;38399;52.236;104.280;2022-10-16T12:06:51;97585.81;;;4.00;43.92
52489;BME280;38399;52.236;104.280;2022-10-16T12:09:26;97577.94;;;3.99;44.75
52489;BME280;38399;52.236;104.280;2022-10-16T12:11:53;97572.91;;;4.04;44.32
52489;BME280;38399;52.236;104.280;2022-10-16T12:14:43;97570.22;;;4.04;44.25
52489;BME280;38399;52.236;104.280;2022-10-16T12:19:57;97556.31;;;4.00;44.03
52489;BME280;38399;52.236;104.280;2022-10-16T12:22:28;97560.66;;;3.93;43.62
52489;BME280;38399;52.236;104.280;2022-10-16T12:24:56;97559.44;;;3.79;43.60
52489;BME280;38399;52.236;104.280;2022-10-16T12:27:31;97555.41;;;3.75;43.97
52489;BME280;38399;52.236;104.280;2022-10-16T12:30:01;97555.56;;;3.73;43.66
52489;BME280;38399;52.236;104.280;2022-10-16T12:32:37;97555.06;;;3.70;43.30
52489;BME280;38399;52.236;104.280;2022-10-16T12:35:25;97547.50;;;3.65;43.23
52489;BME280;38399;52.236;104.280;2022-10-16T12:37:53;97550.00;;;3.58;43.57
52489;BME280;38399;52.236;104.280;2022-10-16T12:40:38;97552.00;;;3.56;43.76
52489;BME280;38399;52.236;104.280;2022-10-16T12:46:04;97553.44;;;3.42;43.63
52489;BME280;38399;52.236;104.280;2022-10-16T12:48:32;97549.25;;;3.40;44.02
52489;BME280;38399;52.236;104.280;2022-10-16T12:51:51;97555.25;;;3.34;44.41
52489;BME280;38399;52.236;104.280;2022-10-16T12:56:51;97547.13;;;3.17;44.54
52489;BME280;38399;52.236;104.280;2022-10-16T13:05:30;97537.81;;;2.95;45.51
52489;BME280;38399;52.236;104.280;2022-10-16T13:08:27;97542.94;;;2.88;45.67
52489;BME280;38399;52.236;104.280;2022-10-16T13:11:27;97532.19;;;2.80;46.29
52489;BME280;38399;52.236;104.280;2022-10-16T13:17:17;97527.78;;;2.71;46.33
52489;BME280;38399;52.236;104.280;2022-10-16T13:22:47;97521.47;;;2.54;46.92
52489;BME280;38399;52.236;104.280;2022-10-16T13:28:06;97515.88;;;2.47;47.62
52489;BME280;38399;52.236;104.280;2022-10-16T13:30:39;97518.25;;;2.50;47.60
52489;BME280;38399;52.236;104.280;2022-10-16T13:33:21;97519.09;;;2.51;47.95
52489;BME280;38399;52.236;104.280;2022-10-16T13:35:53;97517.44;;;2.49;47.79
52489;BME280;38399;52.236;104.280;2022-10-16T13:38:27;97507.72;;;2.48;48.26
52489;BME280;38399;52.236;104.280;2022-10-16T13:41:03;97506.84;;;2.48;48.33
52489;BME280;38399;52.236;104.280;2022-10-16T13:43:45;97508.72;;;2.47;48.87
52489;BME280;38399;52.236;104.280;2022-10-16T13:46:15;97508.19;;;2.44;48.34
52489;BME280;38399;52.236;104.280;2022-10-16T13:48:42;97503.13;;;2.41;48.46
52489;BME280;38399;52.236;104.280;2022-10-16T13:51:17;97508.66;;;2.39;49.38
52489;BME280;38399;52.236;104.280;2022-10-16T13:53:45;97501.09;;;2.35;48.56
52489;BME280;38399;52.236;104.280;2022-10-16T13:56:17;97501.91;;;2.35;49.43
52489;BME280;38399;52.236;104.280;2022-10-16T13:58:44;97503.91;;;2.33;49.16
52489;BME280;38399;52.236;104.280;2022-10-16T14:01:25;97498.72;;;2.31;49.36
52489;BME280;38399;52.236;104.280;2022-10-16T14:04:10;97494.53;;;2.29;50.10
52489;BME280;38399;52.236;104.280;2022-10-16T14:06:44;97495.81;;;2.25;50.11
52489;BME280;38399;52.236;104.280;2022-10-16T14:09:27;97490.22;;;2.18;50.15
52489;BME280;38399;52.236;104.280;2022-10-16T14:12:00;97493.72;;;2.10;50.31
52489;BME280;38399;52.236;104.280;2022-10-16T14:14:35;97488.81;;;2.06;50.35
52489;BME280;38399;52.236;104.280;2022-10-16T14:17:05;97494.16;;;2.06;50.25
52489;BME280;38399;52.236;104.280;2022-10-16T14:19:32;97482.78;;;2.04;50.37
52489;BME280;38399;52.236;104.280;2022-10-16T14:22:01;97482.91;;;2.02;50.95
52489;BME280;38399;52.236;104.280;2022-10-16T14:24:33;97485.75;;;2.00;51.27
52489;BME280;38399;52.236;104.280;2022-10-16T14:27:01;97488.44;;;2.00;50.60
52489;BME280;38399;52.236;104.280;2022-10-16T14:29:29;97493.09;;;1.98;51.12
52489;BME280;38399;52.236;104.280;2022-10-16T14:32:02;97479.19;;;1.95;51.63
52489;BME280;38399;52.236;104.280;2022-10-16T14:34:37;97484.81;;;1.92;52.27
52489;BME280;38399;52.236;104.280;2022-10-16T14:39:33;97487.28;;;1.85;51.54
52489;BME280;38399;52.236;104.280;2022-10-16T14:41:59;97475.28;;;1.89;51.36
52489;BME280;38399;52.236;104.280;2022-10-16T14:44:29;97480.72;;;1.79;51.29
52489;BME280;38399;52.236;104.280;2022-10-16T14:46:57;97473.44;;;1.71;51.85
52489;BME280;38399;52.236;104.280;2022-10-16T14:49:26;97472.22;;;1.66;51.79
52489;BME280;38399;52.236;104.280;2022-10-16T14:51:54;97476.06;;;1.63;52.05
52489;BME280;38399;52.236;104.280;2022-10-16T14:54:20;97470.09;;;1.69;51.04
52489;BME280;38399;52.236;104.280;2022-10-16T14:56:50;97469.84;;;1.63;51.90
52489;BME280;38399;52.236;104.280;2022-10-16T14:59:25;97461.75;;;1.54;52.95